createdAt,value
2018-04-19T00:00:30.227Z,49.90
2018-04-19T00:01:33.458Z,50.10
2018-04-19T00:02:35.933Z,50.10
2018-04-19T00:03:38.417Z,50.00
2018-04-19T00:04:40.955Z,50.00
2018-04-19T00:05:43.428Z,50.00
2018-04-19T00:06:45.892Z,50.10
2018-04-19T00:07:48.373Z,50.00
2018-04-19T00:08:51.611Z,49.80
2018-04-19T00:09:54.105Z,49.80
2018-04-19T00:10:56.654Z,49.70
2018-04-19T00:12:00.680Z,49.60
2018-04-19T00:13:03.156Z,49.50
2018-04-19T00:14:05.624Z,49.40
2018-04-19T00:15:08.104Z,49.30
2018-04-19T00:16:11.336Z,49.50
2018-04-19T00:17:13.805Z,49.40
2018-04-19T00:18:16.532Z,49.50
2018-04-19T00:19:19.768Z,49.50
2018-04-19T00:20:22.267Z,49.50
2018-04-19T00:21:25.504Z,49.50
2018-04-19T00:22:27.967Z,49.50
2018-04-19T00:23:30.440Z,49.50
2018-04-19T00:24:32.904Z,49.50
2018-04-19T00:25:35.396Z,49.50
2018-04-19T00:26:39.685Z,49.60
2018-04-19T00:27:42.151Z,49.60
2018-04-19T00:28:44.621Z,49.60
2018-04-19T00:29:47.085Z,49.70
2018-04-19T00:30:50.356Z,50.00
2018-04-19T00:31:52.851Z,49.90
2018-04-19T00:32:56.086Z,50.10
2018-04-19T00:33:58.566Z,50.10
2018-04-19T00:35:01.032Z,50.10
2018-04-19T00:36:04.328Z,50.10
2018-04-19T00:37:06.796Z,50.10
2018-04-19T00:38:10.038Z,50.10
2018-04-19T00:39:12.507Z,50.10
2018-04-19T00:40:14.973Z,50.00
2018-04-19T00:41:17.451Z,50.00
2018-04-19T00:42:19.925Z,50.00
2018-04-19T00:43:26.317Z,50.10
2018-04-19T00:44:28.911Z,50.60
2018-04-19T00:45:31.376Z,50.20
2018-04-19T00:46:33.864Z,50.20
2018-04-19T00:47:36.332Z,50.30
2018-04-19T00:48:38.795Z,50.30
2018-04-19T00:49:41.264Z,50.40
2018-04-19T00:50:43.731Z,50.40
2018-04-19T00:51:46.216Z,50.50
2018-04-19T00:53:00.560Z,50.60
2018-04-19T00:54:03.056Z,50.70
2018-04-19T00:55:05.527Z,50.70
2018-04-19T00:56:07.994Z,50.80
2018-04-19T00:57:10.487Z,50.80
2018-04-19T00:58:12.956Z,50.90
2018-04-19T00:59:15.419Z,50.90
2018-04-19T01:00:17.884Z,50.90
2018-04-19T01:01:20.368Z,51.00
2018-04-19T01:02:22.849Z,51.00
2018-04-19T01:03:26.093Z,51.00
2018-04-19T01:04:28.564Z,51.10
2018-04-19T01:05:31.845Z,51.10
2018-04-19T01:06:34.307Z,51.20
2018-04-19T01:07:36.889Z,51.30
2018-04-19T01:08:39.363Z,51.40
2018-04-19T01:09:41.844Z,51.50
2018-04-19T01:10:45.084Z,51.70
2018-04-19T01:11:47.544Z,51.60
2018-04-19T01:12:50.036Z,51.70
2018-04-19T01:13:52.539Z,51.80
2018-04-19T01:14:54.995Z,51.90
2018-04-19T01:15:57.460Z,51.90
2018-04-19T01:16:59.944Z,52.00
2018-04-19T01:18:02.428Z,52.10
2018-04-19T01:19:04.892Z,52.20
2018-04-19T01:20:07.373Z,52.40
2018-04-19T01:21:09.881Z,52.40
2018-04-19T01:22:12.371Z,52.50
2018-04-19T01:23:14.857Z,52.60
2018-04-19T01:24:17.315Z,52.70
2018-04-19T01:25:19.794Z,52.80
2018-04-19T01:26:22.273Z,52.80
2018-04-19T01:27:24.786Z,53.00
2018-04-19T01:28:27.315Z,53.10
2018-04-19T01:29:29.797Z,53.20
2018-04-19T01:30:32.272Z,53.40
2018-04-19T01:31:34.737Z,53.50
2018-04-19T01:32:37.200Z,53.70
2018-04-19T01:33:39.721Z,53.70
2018-04-19T01:34:42.184Z,53.70
2018-04-19T01:37:19.988Z,53.60
2018-04-19T01:38:22.456Z,54.00
2018-04-19T01:39:24.936Z,53.60
2018-04-19T01:40:28.172Z,53.50
2018-04-19T01:41:30.635Z,53.50
2018-04-19T01:42:33.278Z,53.50
2018-04-19T01:43:35.748Z,53.70
2018-04-19T01:44:38.232Z,53.70
2018-04-19T01:45:40.695Z,53.80
2018-04-19T01:46:43.174Z,53.80
2018-04-19T01:47:45.639Z,53.70
2018-04-19T01:48:48.105Z,53.80
2018-04-19T01:49:50.604Z,53.70
2018-04-19T01:50:53.835Z,53.70
2018-04-19T01:51:56.304Z,53.60
2018-04-19T01:52:58.787Z,53.70
2018-04-19T01:54:01.249Z,53.60
2018-04-19T01:55:03.739Z,53.60
2018-04-19T01:56:06.219Z,53.60
2018-04-19T01:57:09.449Z,53.70
2018-04-19T01:58:11.971Z,53.70
2018-04-19T01:59:14.432Z,53.70
2018-04-19T02:00:17.687Z,53.80
2018-04-19T02:01:20.148Z,53.80
2018-04-19T02:02:22.624Z,53.90
2018-04-19T02:03:25.090Z,54.00
2018-04-19T02:04:27.561Z,54.00
2018-04-19T02:05:30.800Z,54.30
2018-04-19T02:06:33.280Z,54.20
2018-04-19T02:07:35.761Z,54.40
2018-04-19T02:08:38.231Z,54.50
2018-04-19T02:09:40.700Z,54.20
2018-04-19T02:10:43.949Z,54.90
2018-04-19T02:11:46.408Z,54.90
2018-04-19T02:12:48.872Z,54.90
2018-04-19T02:13:51.340Z,55.10
2018-04-19T02:14:53.800Z,55.40
2018-04-19T02:15:56.373Z,55.50
2018-04-19T02:16:58.852Z,55.60
2018-04-19T02:18:01.335Z,55.80
2018-04-19T02:19:04.568Z,56.10
2018-04-19T02:20:07.036Z,56.00
2018-04-19T02:21:09.712Z,56.10
2018-04-19T02:22:12.179Z,56.10
2018-04-19T02:23:14.648Z,56.10
2018-04-19T02:24:17.108Z,56.10
2018-04-19T02:25:19.606Z,56.10
2018-04-19T02:26:22.101Z,56.00
2018-04-19T02:27:24.572Z,56.00
2018-04-19T02:28:27.068Z,55.90
2018-04-19T02:29:29.535Z,55.80
2018-04-19T02:30:32.000Z,55.80
2018-04-19T02:31:34.488Z,55.70
2018-04-19T02:32:37.720Z,55.70
2018-04-19T02:33:40.193Z,55.70
2018-04-19T02:34:42.664Z,55.60
2018-04-19T02:35:45.160Z,55.60
2018-04-19T02:36:47.627Z,55.50
2018-04-19T02:37:50.969Z,55.50
2018-04-19T02:38:53.433Z,55.50
2018-04-19T02:39:55.900Z,55.40
2018-04-19T02:40:58.363Z,55.40
2018-04-19T02:42:01.379Z,55.40
2018-04-19T02:43:04.643Z,55.90
2018-04-19T02:44:07.126Z,55.40
2018-04-19T02:45:09.595Z,55.50
2018-04-19T02:46:12.846Z,55.60
2018-04-19T02:47:15.347Z,55.50
2018-04-19T02:48:18.580Z,55.60
2018-04-19T02:49:21.048Z,55.60
2018-04-19T02:50:23.512Z,55.70
2018-04-19T02:51:25.980Z,55.70
2018-04-19T02:52:28.456Z,55.70
2018-04-19T02:53:30.930Z,55.60
2018-04-19T02:54:33.405Z,55.60
2018-04-19T02:55:37.380Z,55.40
2018-04-19T02:56:39.844Z,55.40
2018-04-19T02:57:42.334Z,55.20
2018-04-19T02:58:45.578Z,54.80
2018-04-19T02:59:48.044Z,54.80
2018-04-19T03:00:50.509Z,54.70
2018-04-19T03:01:52.983Z,54.70
2018-04-19T03:02:55.463Z,54.80
2018-04-19T03:03:57.932Z,54.80
2018-04-19T03:05:00.397Z,54.70
2018-04-19T03:06:04.379Z,54.40
2018-04-19T03:07:06.843Z,54.40
2018-04-19T03:08:09.325Z,54.50
2018-04-19T03:09:11.795Z,54.50
2018-04-19T03:10:14.264Z,54.40
2018-04-19T03:11:17.519Z,54.90
2018-04-19T03:12:19.980Z,54.30
2018-04-19T03:13:22.496Z,54.40
2018-04-19T03:14:25.779Z,54.20
2018-04-19T03:15:28.217Z,54.20
2018-04-19T03:16:30.675Z,54.10
2018-04-19T03:17:33.147Z,54.00
2018-04-19T03:18:36.396Z,53.80
2018-04-19T03:19:38.915Z,53.80
2018-04-19T03:20:42.151Z,53.70
2018-04-19T03:21:44.644Z,53.70
2018-04-19T03:22:48.615Z,53.60
2018-04-19T03:23:51.167Z,53.60
2018-04-19T03:24:53.644Z,53.70
2018-04-19T03:25:56.124Z,53.70
2018-04-19T03:26:58.596Z,53.80
2018-04-19T03:28:01.057Z,53.80
2018-04-19T03:29:03.566Z,53.70
2018-04-19T03:30:06.784Z,53.40
2018-04-19T03:31:09.252Z,53.30
2018-04-19T03:32:11.712Z,53.20
2018-04-19T03:33:14.188Z,53.00
2018-04-19T03:34:16.673Z,52.70
2018-04-19T03:35:19.148Z,52.40
2018-04-19T03:36:22.383Z,51.90
2018-04-19T03:37:24.852Z,51.90
2018-04-19T03:38:27.319Z,51.80
2018-04-19T03:39:29.805Z,51.60
2018-04-19T03:40:32.283Z,51.50
2018-04-19T03:41:34.750Z,51.40
2018-04-19T03:42:37.213Z,51.30
2018-04-19T03:43:39.678Z,51.20
2018-04-19T03:44:42.929Z,51.50
2018-04-19T03:45:45.387Z,51.00
2018-04-19T03:46:47.852Z,50.90
2018-04-19T03:47:50.379Z,50.80
2018-04-19T03:48:52.851Z,50.80
2018-04-19T03:49:55.339Z,50.80
2018-04-19T03:50:57.804Z,51.20
2018-04-19T03:52:00.270Z,50.60
2018-04-19T03:53:02.744Z,50.60
2018-04-19T03:54:05.213Z,51.00
2018-04-19T03:55:07.696Z,50.40
2018-04-19T03:56:10.165Z,50.40
2018-04-19T03:57:13.409Z,51.10
2018-04-19T03:58:15.919Z,50.50
2018-04-19T03:59:18.395Z,50.50
2018-04-19T04:00:21.719Z,50.50
2018-04-19T04:01:24.202Z,50.50
2018-04-19T04:02:26.686Z,50.40
2018-04-19T04:03:29.148Z,50.50
2018-04-19T04:04:33.190Z,50.40
2018-04-19T04:05:35.704Z,50.40
2018-04-19T04:06:38.179Z,50.40
2018-04-19T04:07:40.644Z,50.30
2018-04-19T04:08:43.112Z,50.80
2018-04-19T04:09:46.357Z,50.00
2018-04-19T04:10:48.839Z,50.30
2018-04-19T04:11:51.300Z,50.80
2018-04-19T04:12:53.784Z,50.30
2018-04-19T04:13:56.291Z,50.20
2018-04-19T04:14:58.753Z,50.20
2018-04-19T04:16:01.242Z,50.20
2018-04-19T04:17:15.761Z,50.20
2018-04-19T04:18:30.930Z,50.20
2018-04-19T04:19:45.348Z,50.10
2018-04-19T04:21:07.643Z,50.10
2018-04-19T04:22:21.813Z,50.10
2018-04-19T04:23:50.848Z,50.00
2018-04-19T04:24:53.335Z,50.00
2018-04-19T04:25:55.800Z,49.90
2018-04-19T04:26:58.585Z,50.00
2018-04-19T04:28:01.050Z,50.00
2018-04-19T04:29:03.513Z,50.00
2018-04-19T04:30:05.980Z,49.90
2018-04-19T04:31:08.520Z,50.00
2018-04-19T04:32:11.212Z,49.90
2018-04-19T04:33:14.472Z,50.00
2018-04-19T04:34:16.969Z,50.00
2018-04-19T04:35:20.217Z,50.10
2018-04-19T04:36:22.672Z,50.00
2018-04-19T04:37:25.202Z,50.00
2018-04-19T04:38:28.435Z,50.00
2018-04-19T04:39:30.908Z,50.00
2018-04-19T04:40:33.376Z,50.00
2018-04-19T04:41:35.877Z,50.00
2018-04-19T04:42:39.130Z,50.00
2018-04-19T04:43:41.596Z,50.00
2018-04-19T04:44:44.380Z,50.00
2018-04-19T04:45:46.855Z,50.00
2018-04-19T04:46:50.080Z,50.10
2018-04-19T04:47:52.620Z,50.00
2018-04-19T04:48:55.042Z,50.10
2018-04-19T04:49:59.124Z,50.40
2018-04-19T04:51:01.596Z,50.00
2018-04-19T04:52:04.056Z,50.00
2018-04-19T04:53:06.537Z,50.10
2018-04-19T04:54:09.007Z,50.10
2018-04-19T04:55:12.980Z,50.20
2018-04-19T04:56:15.480Z,50.10
2018-04-19T04:57:18.745Z,50.10
2018-04-19T04:58:21.310Z,50.20
2018-04-19T04:59:23.822Z,50.20
2018-04-19T05:00:27.991Z,50.20
2018-04-19T05:01:30.466Z,50.20
2018-04-19T05:02:33.691Z,50.30
2018-04-19T05:03:36.502Z,50.20
2018-04-19T05:04:38.983Z,50.20
2018-04-19T05:05:41.532Z,50.20
2018-04-19T05:06:44.012Z,50.20
2018-04-19T05:07:47.260Z,50.30
2018-04-19T05:08:49.775Z,50.20
2018-04-19T05:09:53.004Z,50.20
2018-04-19T05:10:55.480Z,50.20
2018-04-19T05:11:57.948Z,50.20
2018-04-19T05:13:00.455Z,50.20
2018-04-19T05:14:02.948Z,50.20
2018-04-19T05:15:05.431Z,50.20
2018-04-19T05:16:07.900Z,50.20
2018-04-19T05:17:10.364Z,50.20
2018-04-19T05:18:12.840Z,50.20
2018-04-19T05:19:15.622Z,50.20
2018-04-19T05:20:18.096Z,50.30
2018-04-19T05:21:21.336Z,50.30
2018-04-19T05:22:23.817Z,50.30
2018-04-19T05:23:26.325Z,50.20
2018-04-19T05:24:29.573Z,50.30
2018-04-19T05:25:32.070Z,50.30
2018-04-19T05:26:35.299Z,50.30
2018-04-19T05:27:37.785Z,50.30
2018-04-19T05:28:40.252Z,50.30
2018-04-19T05:29:42.739Z,50.40
2018-04-19T05:30:45.971Z,50.40
2018-04-19T05:31:48.436Z,50.40
2018-04-19T05:32:51.077Z,50.40
2018-04-19T05:33:53.801Z,50.40
2018-04-19T05:34:56.323Z,50.50
2018-04-19T05:35:58.788Z,50.50
2018-04-19T05:37:01.256Z,50.50
2018-04-19T05:38:03.779Z,50.60
2018-04-19T05:39:07.053Z,50.70
2018-04-19T05:40:09.571Z,50.70
2018-04-19T05:41:12.041Z,50.70
2018-04-19T05:42:17.605Z,50.70
2018-04-19T05:43:20.344Z,50.80
2018-04-19T05:44:22.807Z,50.80
2018-04-19T05:45:25.299Z,50.80
2018-04-19T05:46:27.932Z,51.30
2018-04-19T05:47:30.522Z,50.80
2018-04-19T05:48:32.980Z,50.80
2018-04-19T05:49:35.536Z,50.70
2018-04-19T05:50:38.051Z,50.70
2018-04-19T05:51:41.289Z,50.80
2018-04-19T05:52:43.772Z,50.80
2018-04-19T05:53:46.254Z,50.70
2018-04-19T05:54:48.724Z,50.70
2018-04-19T05:55:51.212Z,50.70
2018-04-19T05:56:54.448Z,50.70
2018-04-19T05:57:56.925Z,50.70
2018-04-19T05:58:59.399Z,50.70
2018-04-19T06:00:02.728Z,50.70
2018-04-19T06:01:05.564Z,50.70
2018-04-19T06:02:08.980Z,50.80
2018-04-19T06:03:11.548Z,50.80
2018-04-19T06:04:13.996Z,50.80
2018-04-19T06:05:17.232Z,50.90
2018-04-19T06:06:19.741Z,50.80
2018-04-19T06:07:22.980Z,50.80
2018-04-19T06:08:25.471Z,50.80
2018-04-19T06:09:27.975Z,50.80
2018-04-19T06:10:30.443Z,51.30
2018-04-19T06:11:33.089Z,50.70
2018-04-19T06:12:35.592Z,51.20
2018-04-19T06:13:38.060Z,50.70
2018-04-19T06:14:40.526Z,50.80
2018-04-19T06:15:43.020Z,50.80
2018-04-19T06:16:45.821Z,50.80
2018-04-19T06:17:49.060Z,50.60
2018-04-19T06:18:51.525Z,50.60
2018-04-19T06:19:54.004Z,50.50
2018-04-19T06:20:56.472Z,50.50
2018-04-19T06:21:58.958Z,50.40
2018-04-19T06:23:02.216Z,50.20
2018-04-19T06:24:04.688Z,50.20
2018-04-19T06:25:07.174Z,50.10
2018-04-19T06:26:10.400Z,50.20
2018-04-19T06:27:12.893Z,50.10
2018-04-19T06:28:15.359Z,50.10
2018-04-19T06:29:18.596Z,49.90
2018-04-19T06:30:21.096Z,49.80
2018-04-19T06:31:23.572Z,49.80
2018-04-19T06:32:26.063Z,49.70
2018-04-19T06:33:29.297Z,49.50
2018-04-19T06:34:31.800Z,49.50
2018-04-19T06:35:35.033Z,49.50
2018-04-19T06:36:37.533Z,49.50
2018-04-19T06:37:40.016Z,49.40
2018-04-19T06:38:43.252Z,49.50
2018-04-19T06:39:45.720Z,49.50
2018-04-19T06:40:48.215Z,49.50
2018-04-19T06:41:50.678Z,49.50
2018-04-19T06:42:53.176Z,49.50
2018-04-19T06:43:55.650Z,49.50
2018-04-19T06:44:58.144Z,49.50
2018-04-19T06:46:00.632Z,49.50
2018-04-19T06:47:03.100Z,49.50
2018-04-19T06:48:05.611Z,49.50
2018-04-19T06:49:08.076Z,49.60
2018-04-19T06:50:10.548Z,49.50
2018-04-19T06:51:13.065Z,49.40
2018-04-19T06:52:15.766Z,49.10
2018-04-19T06:53:18.325Z,49.10
2018-04-19T06:54:20.807Z,49.00
2018-04-19T06:55:23.299Z,48.90
2018-04-19T06:56:25.777Z,48.90
2018-04-19T06:57:28.253Z,48.80
2018-04-19T06:58:30.736Z,49.10
2018-04-19T06:59:34.029Z,48.40
2018-04-19T07:00:37.252Z,48.30
2018-04-19T07:01:39.720Z,48.30
2018-04-19T07:02:42.200Z,48.30
2018-04-19T07:03:44.684Z,48.20
2018-04-19T07:04:47.150Z,48.10
2018-04-19T07:05:50.392Z,47.80
2018-04-19T07:06:52.888Z,47.80
2018-04-19T07:07:56.128Z,48.10
2018-04-19T07:08:59.543Z,47.70
2018-04-19T07:10:02.014Z,47.40
2018-04-19T07:11:04.568Z,47.30
2018-04-19T07:12:07.036Z,47.30
2018-04-19T07:13:09.497Z,47.30
2018-04-19T07:14:12.121Z,47.30
2018-04-19T07:15:14.606Z,47.30
2018-04-19T07:16:17.108Z,47.40
2018-04-19T07:17:19.648Z,47.50
2018-04-19T07:18:22.136Z,47.60
2018-04-19T07:19:26.125Z,47.50
2018-04-19T07:20:28.614Z,47.40
2018-04-19T07:21:31.106Z,47.40
2018-04-19T07:22:34.328Z,47.20
2018-04-19T07:23:37.200Z,47.20
2018-04-19T07:24:39.725Z,47.10
2018-04-19T07:25:42.192Z,46.80
2018-04-19T07:26:44.656Z,46.60
2018-04-19T07:27:47.136Z,46.70
2018-04-19T07:28:49.612Z,46.70
2018-04-19T07:29:52.093Z,46.60
2018-04-19T07:30:55.167Z,46.50
2018-04-19T07:31:57.676Z,46.50
2018-04-19T07:33:00.914Z,46.10
2018-04-19T07:34:04.206Z,45.60
2018-04-19T07:35:06.750Z,46.00
2018-04-19T07:36:09.212Z,46.00
2018-04-19T07:37:11.677Z,46.00
2018-04-19T07:38:14.144Z,45.80
2018-04-19T07:39:16.607Z,45.80
2018-04-19T07:40:19.436Z,45.60
2018-04-19T07:41:22.712Z,45.40
2018-04-19T07:42:25.944Z,45.40
2018-04-19T07:43:28.503Z,45.30
2018-04-19T07:44:31.015Z,45.40
2018-04-19T07:45:34.281Z,45.50
2018-04-19T07:46:36.751Z,45.50
2018-04-19T07:47:39.221Z,45.50
2018-04-19T07:48:41.692Z,45.40
2018-04-19T07:49:44.156Z,45.40
2018-04-19T07:50:48.152Z,45.60
2018-04-19T07:51:51.388Z,45.60
2018-04-19T07:52:53.867Z,45.60
2018-04-19T07:53:56.345Z,45.40
2018-04-19T07:54:58.840Z,45.00
2018-04-19T07:56:01.348Z,45.00
2018-04-19T07:57:03.848Z,44.90
2018-04-19T07:58:06.333Z,44.90
2018-04-19T07:59:08.806Z,44.90
2018-04-19T08:00:12.040Z,44.90
2018-04-19T08:01:14.584Z,44.90
2018-04-19T08:02:17.240Z,44.80
2018-04-19T08:03:19.713Z,44.70
2018-04-19T08:04:22.184Z,44.70
2018-04-19T08:05:24.818Z,44.30
2018-04-19T08:06:28.141Z,44.10
2018-04-19T08:07:30.645Z,44.00
2018-04-19T08:08:33.112Z,43.90
2018-04-19T08:09:35.580Z,43.80
2018-04-19T08:10:38.044Z,44.40
2018-04-19T08:11:41.308Z,43.70
2018-04-19T08:12:43.791Z,43.70
2018-04-19T08:13:46.259Z,43.30
2018-04-19T08:14:48.720Z,43.20
2018-04-19T08:15:51.212Z,43.20
2018-04-19T08:16:54.504Z,43.50
2018-04-19T08:17:56.969Z,43.50
2018-04-19T08:18:59.671Z,43.50
2018-04-19T08:20:02.144Z,43.50
2018-04-19T08:21:04.627Z,43.60
2018-04-19T08:22:07.412Z,43.70
2018-04-19T08:23:10.647Z,44.30
2018-04-19T08:24:13.112Z,43.70
2018-04-19T08:25:15.576Z,43.80
2018-04-19T08:26:18.040Z,43.90
2018-04-19T08:27:20.531Z,43.80
2018-04-19T08:28:23.028Z,43.70
2018-04-19T08:29:26.944Z,43.50
2018-04-19T08:30:29.407Z,43.50
2018-04-19T08:31:31.888Z,43.40
2018-04-19T08:32:34.359Z,43.40
2018-04-19T08:33:36.823Z,43.20
2018-04-19T08:34:39.292Z,43.00
2018-04-19T08:35:41.756Z,42.80
2018-04-19T08:36:44.239Z,42.70
2018-04-19T08:37:46.732Z,42.70
2018-04-19T08:38:49.207Z,42.70
2018-04-19T08:39:52.437Z,43.00
2018-04-19T08:40:54.905Z,43.00
2018-04-19T08:41:57.400Z,43.00
2018-04-19T08:43:00.654Z,42.80
2018-04-19T08:44:03.126Z,42.80
2018-04-19T08:45:05.601Z,42.80
2018-04-19T08:46:08.107Z,42.90
2018-04-19T08:47:11.339Z,42.90
2018-04-19T08:48:13.872Z,43.40
2018-04-19T08:49:16.345Z,43.00
2018-04-19T08:50:18.835Z,42.90
2018-04-19T08:51:21.337Z,42.80
2018-04-19T08:52:24.572Z,42.60
2018-04-19T08:53:27.056Z,42.50
2018-04-19T08:54:29.520Z,42.50
2018-04-19T08:55:31.993Z,42.60
2018-04-19T08:56:35.973Z,42.60
2018-04-19T08:57:38.440Z,42.60
2018-04-19T08:58:41.963Z,42.60
2018-04-19T08:59:45.196Z,42.50
2018-04-19T09:00:47.688Z,42.50
2018-04-19T09:01:50.156Z,42.50
2018-04-19T09:02:52.662Z,42.40
2018-04-19T09:03:55.448Z,42.30
2018-04-19T09:04:57.926Z,42.10
2018-04-19T09:06:01.196Z,42.00
2018-04-19T09:07:05.222Z,42.10
2018-04-19T09:08:07.716Z,42.10
2018-04-19T09:09:10.972Z,41.80
2018-04-19T09:10:13.456Z,41.80
2018-04-19T09:11:15.925Z,41.50
2018-04-19T09:12:18.454Z,41.50
2018-04-19T09:13:20.925Z,41.50
2018-04-19T09:14:23.411Z,41.60
2018-04-19T09:15:25.888Z,41.70
2018-04-19T09:16:28.370Z,41.80
2018-04-19T09:17:31.611Z,41.90
2018-04-19T09:18:34.078Z,41.80
2018-04-19T09:19:36.572Z,41.90
2018-04-19T09:20:39.803Z,41.80
2018-04-19T09:21:42.272Z,41.70
2018-04-19T09:22:44.732Z,41.70
2018-04-19T09:23:47.200Z,41.60
2018-04-19T09:24:49.680Z,41.70
2018-04-19T09:25:52.165Z,41.80
2018-04-19T09:26:55.400Z,41.90
2018-04-19T09:27:57.868Z,41.90
2018-04-19T09:29:00.360Z,42.00
2018-04-19T09:30:02.925Z,41.90
2018-04-19T09:31:05.465Z,41.90
2018-04-19T09:32:07.929Z,41.90
2018-04-19T09:33:10.396Z,42.00
2018-04-19T09:34:12.907Z,42.00
2018-04-19T09:35:15.367Z,42.00
2018-04-19T09:36:19.345Z,41.60
2018-04-19T09:37:21.809Z,41.60
2018-04-19T09:38:24.279Z,41.50
2018-04-19T09:39:26.754Z,41.50
2018-04-19T09:40:29.340Z,41.60
2018-04-19T09:41:32.572Z,41.60
2018-04-19T09:42:35.036Z,41.60
2018-04-19T09:43:37.548Z,41.60
2018-04-19T09:44:40.876Z,41.80
2018-04-19T09:45:43.616Z,41.80
2018-04-19T09:46:46.852Z,42.00
2018-04-19T09:47:49.321Z,42.00
2018-04-19T09:48:51.807Z,42.00
2018-04-19T09:49:54.338Z,41.70
2018-04-19T09:50:56.837Z,41.70
2018-04-19T09:51:59.304Z,41.70
2018-04-19T09:53:02.544Z,41.90
2018-04-19T09:54:05.168Z,41.50
2018-04-19T09:55:07.483Z,41.40
2018-04-19T09:56:09.972Z,41.20
2018-04-19T09:57:13.212Z,41.20
2018-04-19T09:58:15.688Z,41.20
2018-04-19T09:59:18.171Z,41.30
2018-04-19T10:00:20.653Z,40.90
2018-04-19T10:01:23.187Z,40.80
2018-04-19T10:02:28.491Z,40.80
2018-04-19T10:03:36.673Z,40.80
2018-04-19T10:04:39.187Z,40.40
2018-04-19T10:05:47.715Z,39.80
2018-04-19T10:06:50.973Z,40.20
2018-04-19T10:07:53.440Z,39.70
2018-04-19T10:08:55.919Z,39.70
2018-04-19T10:09:58.688Z,39.40
2018-04-19T10:11:01.161Z,39.30
2018-04-19T10:12:04.656Z,39.00
2018-04-19T10:13:07.128Z,38.90
2018-04-19T10:14:10.429Z,39.00
2018-04-19T10:15:12.891Z,39.00
2018-04-19T10:16:15.355Z,39.20
2018-04-19T10:17:17.848Z,39.30
2018-04-19T10:18:20.320Z,39.40
2018-04-19T10:19:22.800Z,39.40
2018-04-19T10:20:25.277Z,39.10
2018-04-19T10:21:27.779Z,39.00
2018-04-19T10:22:31.014Z,39.10
2018-04-19T10:23:33.491Z,39.00
2018-04-19T10:24:35.968Z,39.10
2018-04-19T10:25:38.450Z,39.10
2018-04-19T10:26:41.681Z,39.30
2018-04-19T10:27:44.177Z,39.30
2018-04-19T10:28:46.644Z,39.10
2018-04-19T10:29:49.128Z,38.50
2018-04-19T10:30:52.365Z,38.70
2018-04-19T10:31:54.828Z,38.70
2018-04-19T10:32:57.339Z,38.60
2018-04-19T10:34:00.577Z,38.50
2018-04-19T10:35:03.045Z,38.50
2018-04-19T10:36:05.572Z,38.80
2018-04-19T10:37:08.048Z,37.80
2018-04-19T10:38:10.537Z,37.70
2018-04-19T10:39:13.041Z,37.50
2018-04-19T10:40:16.330Z,37.00
2018-04-19T10:41:20.300Z,37.00
2018-04-19T10:42:22.784Z,37.00
2018-04-19T10:43:26.047Z,36.10
2018-04-19T10:44:28.528Z,36.10
2018-04-19T10:45:31.770Z,36.30
2018-04-19T10:46:35.460Z,36.20
2018-04-19T10:47:37.980Z,36.30
2018-04-19T10:48:41.240Z,36.60
2018-04-19T10:49:43.700Z,36.60
2018-04-19T10:50:46.944Z,36.80
2018-04-19T10:51:49.426Z,36.80
2018-04-19T10:52:51.892Z,35.90
2018-04-19T10:53:54.376Z,35.60
2018-04-19T10:54:56.864Z,35.30
2018-04-19T10:56:00.106Z,34.50
2018-04-19T10:57:02.568Z,34.50
2018-04-19T10:58:05.036Z,34.40
2018-04-19T10:59:07.548Z,34.50
2018-04-19T11:00:10.784Z,35.00
2018-04-19T11:01:13.285Z,35.00
2018-04-19T11:02:16.524Z,34.30
2018-04-19T11:03:18.988Z,34.30
2018-04-19T11:04:21.480Z,34.20
2018-04-19T11:05:24.720Z,33.60
2018-04-19T11:06:27.188Z,33.60
2018-04-19T11:07:29.661Z,33.60
2018-04-19T11:08:32.180Z,33.90
2018-04-19T11:09:34.651Z,34.20
2018-04-19T11:10:37.887Z,34.30
2018-04-19T11:11:40.385Z,34.30
2018-04-19T11:12:43.627Z,34.40
2018-04-19T11:13:46.095Z,34.30
2018-04-19T11:14:48.607Z,33.70
2018-04-19T11:15:51.081Z,33.50
2018-04-19T11:16:53.564Z,33.10
2018-04-19T11:17:56.042Z,32.40
2018-04-19T11:18:58.528Z,30.80
2018-04-19T11:20:01.786Z,30.90
2018-04-19T11:21:04.273Z,30.90
2018-04-19T11:22:06.747Z,31.00
2018-04-19T11:23:10.001Z,31.50
2018-04-19T11:24:12.472Z,31.50
2018-04-19T11:25:14.970Z,31.70
2018-04-19T11:26:18.212Z,31.60
2018-04-19T11:27:20.735Z,32.10
2018-04-19T11:28:24.446Z,31.70
2018-04-19T11:29:26.915Z,31.70
2018-04-19T11:30:29.400Z,32.00
2018-04-19T11:31:31.936Z,32.40
2018-04-19T11:32:34.403Z,32.90
2018-04-19T11:33:36.871Z,33.00
2018-04-19T11:34:39.397Z,33.10
2018-04-19T11:35:42.652Z,33.30
2018-04-19T11:36:45.134Z,33.30
2018-04-19T11:37:47.688Z,33.10
2018-04-19T11:38:50.935Z,32.40
2018-04-19T11:39:53.420Z,31.80
2018-04-19T11:40:55.897Z,31.60
2018-04-19T11:41:58.388Z,31.60
2018-04-19T11:43:01.663Z,31.80
2018-04-19T11:44:04.128Z,31.80
2018-04-19T11:45:06.603Z,32.30
2018-04-19T11:46:09.844Z,32.60
2018-04-19T11:47:12.311Z,32.60
2018-04-19T11:48:14.980Z,32.60
2018-04-19T11:49:17.475Z,32.40
2018-04-19T11:50:21.572Z,32.30
2018-04-19T11:51:24.865Z,32.10
2018-04-19T11:52:28.109Z,32.30
2018-04-19T11:53:31.504Z,32.20
2018-04-19T11:54:33.980Z,31.70
2018-04-19T11:55:36.462Z,31.30
2018-04-19T11:56:39.731Z,32.20
2018-04-19T11:57:42.211Z,31.70
2018-04-19T11:58:45.520Z,32.70
2018-04-19T11:59:48.027Z,32.20
2018-04-19T12:00:50.496Z,32.20
2018-04-19T12:01:53.025Z,32.10
2018-04-19T12:02:55.524Z,32.10
2018-04-19T12:03:58.016Z,32.00
2018-04-19T12:05:00.507Z,32.00
2018-04-19T12:06:03.776Z,31.80
2018-04-19T12:07:07.020Z,31.80
2018-04-19T12:08:09.491Z,31.80
2018-04-19T12:09:12.040Z,31.70
2018-04-19T12:10:14.516Z,31.60
2018-04-19T12:11:17.008Z,31.70
2018-04-19T12:12:20.244Z,31.70
2018-04-19T12:13:22.752Z,31.70
2018-04-19T12:14:25.269Z,31.60
2018-04-19T12:15:28.691Z,31.70
2018-04-19T12:16:31.180Z,31.70
2018-04-19T12:17:35.176Z,31.60
2018-04-19T12:18:38.436Z,31.80
2018-04-19T12:19:40.968Z,31.80
2018-04-19T12:20:43.443Z,31.80
2018-04-19T12:21:45.914Z,31.60
2018-04-19T12:22:48.395Z,31.30
2018-04-19T12:23:50.979Z,31.30
2018-04-19T12:24:55.002Z,31.30
2018-04-19T12:25:58.312Z,31.20
2018-04-19T12:27:00.775Z,31.20
2018-04-19T12:28:03.258Z,31.30
2018-04-19T12:29:07.293Z,31.50
2018-04-19T12:30:10.609Z,31.50
2018-04-19T12:31:13.117Z,31.50
2018-04-19T12:32:15.664Z,31.70
2018-04-19T12:33:18.148Z,31.80
2018-04-19T12:34:20.620Z,31.70
2018-04-19T12:35:23.111Z,31.80
2018-04-19T12:36:25.588Z,31.70
2018-04-19T12:37:28.086Z,31.70
2018-04-19T12:38:30.572Z,30.20
2018-04-19T12:39:33.052Z,29.90
2018-04-19T12:40:36.708Z,29.70
2018-04-19T12:41:39.180Z,29.70
2018-04-19T12:42:41.698Z,29.90
2018-04-19T12:43:44.139Z,29.80
2018-04-19T12:44:46.612Z,29.90
2018-04-19T12:45:49.110Z,30.00
2018-04-19T12:46:52.751Z,30.90
2018-04-19T12:47:55.232Z,30.20
2018-04-19T12:48:58.516Z,30.00
2018-04-19T12:50:01.764Z,30.00
2018-04-19T12:51:04.248Z,30.00
2018-04-19T12:52:06.732Z,29.90
2018-04-19T12:53:09.972Z,29.30
2018-04-19T12:54:12.495Z,29.30
2018-04-19T12:55:16.377Z,29.10
2018-04-19T12:56:18.924Z,29.00
2018-04-19T12:57:21.436Z,29.00
2018-04-19T12:58:23.920Z,29.00
2018-04-19T12:59:26.404Z,29.20
2018-04-19T13:00:29.097Z,29.20
2018-04-19T13:01:31.650Z,29.40
2018-04-19T13:02:34.180Z,29.40
2018-04-19T13:03:36.655Z,29.20
2018-04-19T13:04:39.132Z,28.60
2018-04-19T13:05:41.632Z,28.50
2018-04-19T13:06:44.148Z,28.40
2018-04-19T13:07:46.652Z,28.00
2018-04-19T13:08:49.119Z,28.40
2018-04-19T13:09:51.604Z,28.60
2018-04-19T13:10:54.844Z,28.30
2018-04-19T13:11:57.344Z,28.30
2018-04-19T13:12:59.828Z,28.20
2018-04-19T13:14:02.309Z,28.00
2018-04-19T13:15:04.784Z,27.90
2018-04-19T13:16:07.268Z,27.70
2018-04-19T13:17:09.811Z,27.70
2018-04-19T13:18:12.348Z,27.80
2018-04-19T13:19:14.788Z,28.40
2018-04-19T13:20:18.014Z,28.20
2018-04-19T13:21:20.492Z,28.30
2018-04-19T13:22:22.988Z,28.20
2018-04-19T13:23:25.528Z,28.20
2018-04-19T13:24:28.052Z,28.30
2018-04-19T13:25:31.291Z,28.30
2018-04-19T13:26:33.768Z,28.30
2018-04-19T13:27:36.624Z,28.30
2018-04-19T13:28:39.102Z,28.40
2018-04-19T13:29:41.579Z,28.40
2018-04-19T13:30:44.828Z,28.30